< < Back
Terminal Aerodrome Forecast


Current Version              Previous Versions:   1  2  3  4  5  6  7  8  9  

Terminal Aerodrome Forecast

776
FTUS42 KJAX 011543 AAA
TAFGNV
TAF AMD
KGNV 011543Z 0116/0212 24008KT P6SM VCTS SCT025 BKN050CB
      TEMPO 0116/0118 VRB15G25KT 2SM TSRA BKN020CB
     FM012000 21005KT P6SM VCSH SCT040 BKN250
     FM020000 VRB03KT P6SM SCT100 BKN250=



Latest METAR

026
SAUS70 KWBC 020300 RRC
MTRGNV
METAR KGNV 020253Z AUTO 20005KT 10SM CLR 26/23 A3006 RMK AO2 SLP176
T02610228 52008


USA.gov is the U.S. government's official web portal to all federal, state and local government web resources and services.